Time;durP1;ratioP1;P1;durP2;ratioP2;P2;SDS_P1;SDS_P2;PMS_P1;PMS_P2;Temp;Humidity;BMP_temperature;BMP_pressure;BME280_temperature;BME280_humidity;BME280_pressure;Samples;Min_cycle;Max_cycle;Signal;HPM_P1;HPM_P2
2024/01/04 00:00:09;;;;;;;4.90;1.10;;;;;;;9.23;100.00;98080.19;5212586;28;20116;-74
2024/01/04 00:02:39;;;;;;;4.40;1.20;;;;;;;9.24;100.00;98092.25;5209242;28;20631;-73
2024/01/04 00:05:09;;;;;;;4.50;0.90;;;;;;;9.49;100.00;98080.94;5210181;28;20034;-75
2024/01/04 00:07:40;;;;;;;8.05;1.20;;;;;;;9.37;100.00;98090.47;5212188;28;20044;-74
2024/01/04 00:10:12;;;;;;;8.15;1.13;;;;;;;9.33;100.00;98098.59;5211181;28;20021;-75
2024/01/04 00:12:44;;;;;;;5.95;0.80;;;;;;;9.35;100.00;98094.13;5211774;28;20079;-75
2024/01/04 00:15:14;;;;;;;5.45;1.00;;;;;;;9.40;100.00;98097.22;5212056;28;20491;-75
2024/01/04 00:17:45;;;;;;;6.97;1.50;;;;;;;9.23;100.00;98100.16;5208235;28;20037;-75
2024/01/04 00:20:15;;;;;;;5.20;1.00;;;;;;;9.11;100.00;98103.66;5206426;28;20034;-76
2024/01/04 00:22:45;;;;;;;4.00;0.98;;;;;;;9.16;100.00;98111.97;5209418;28;20033;-75
2024/01/04 00:25:16;;;;;;;8.43;1.70;;;;;;;9.13;100.00;98108.75;5209364;28;20033;-76
2024/01/04 00:27:46;;;;;;;5.90;1.42;;;;;;;9.03;100.00;98120.75;5207665;28;20031;-76
2024/01/04 00:30:17;;;;;;;6.28;1.38;;;;;;;9.05;100.00;98127.50;5210683;28;20462;-76
2024/01/04 00:32:47;;;;;;;3.38;1.00;;;;;;;9.10;100.00;98125.41;5210626;28;20475;-76
2024/01/04 00:35:18;;;;;;;3.88;0.93;;;;;;;9.04;100.00;98122.41;5209759;28;20025;-75
2024/01/04 00:37:49;;;;;;;3.42;1.08;;;;;;;8.99;100.00;98133.13;5208771;28;20025;-76
2024/01/04 00:40:19;;;;;;;1.83;0.68;;;;;;;8.93;100.00;98137.91;5212860;28;20025;-76
2024/01/04 00:42:49;;;;;;;2.28;0.80;;;;;;;8.90;100.00;98138.94;5206469;28;20025;-76
2024/01/04 00:45:20;;;;;;;2.45;0.95;;;;;;;8.87;100.00;98128.75;5211021;28;20090;-75
2024/01/04 00:47:50;;;;;;;2.45;0.45;;;;;;;8.91;100.00;98134.59;5209449;28;20087;-75
2024/01/04 00:50:20;;;;;;;1.95;0.60;;;;;;;8.83;100.00;98129.91;5211266;28;20406;-75
2024/01/04 00:52:51;;;;;;;3.58;0.80;;;;;;;8.95;100.00;98139.50;5207966;28;20037;-75
2024/01/04 00:55:21;;;;;;;3.28;0.93;;;;;;;8.95;100.00;98130.84;5213839;28;20040;-75
2024/01/04 00:57:51;;;;;;;1.27;0.85;;;;;;;8.95;100.00;98128.22;5207724;28;20033;-75
2024/01/04 01:00:21;;;;;;;4.53;1.30;;;;;;;8.87;100.00;98138.34;5212110;28;20037;-75
2024/01/04 01:02:52;;;;;;;4.82;1.10;;;;;;;8.94;100.00;98134.38;5207182;28;20446;-75
2024/01/04 01:05:22;;;;;;;6.22;1.40;;;;;;;8.89;100.00;98132.09;5207892;28;20075;-75
2024/01/04 01:07:52;;;;;;;7.22;1.50;;;;;;;8.87;100.00;98139.16;5210204;28;20019;-75
2024/01/04 01:10:22;;;;;;;6.43;1.88;;;;;;;8.86;100.00;98137.50;5205425;28;20437;-75
2024/01/04 01:12:53;;;;;;;4.25;1.80;;;;;;;8.87;100.00;98133.97;5205836;28;20044;-75
2024/01/04 01:15:23;;;;;;;7.22;2.20;;;;;;;8.91;100.00;98143.22;5211383;28;20029;-75
2024/01/04 01:17:53;;;;;;;9.40;2.60;;;;;;;8.92;100.00;98142.28;5208091;28;20519;-75
2024/01/04 01:20:24;;;;;;;5.95;2.08;;;;;;;8.91;100.00;98148.44;5212641;28;20021;-74
2024/01/04 01:22:54;;;;;;;5.70;2.45;;;;;;;8.94;100.00;98148.25;5214169;28;20097;-75
2024/01/04 01:25:24;;;;;;;6.20;2.50;;;;;;;8.91;100.00;98156.25;5214560;28;20164;-76
2024/01/04 01:27:55;;;;;;;8.55;2.70;;;;;;;8.95;100.00;98151.66;5215321;28;20470;-76
2024/01/04 01:30:25;;;;;;;7.13;2.53;;;;;;;8.96;100.00;98158.53;5214553;28;20122;-75
2024/01/04 01:32:55;;;;;;;7.60;2.42;;;;;;;8.94;100.00;98161.28;5212666;28;20167;-75
2024/01/04 01:35:26;;;;;;;6.35;2.58;;;;;;;9.01;100.00;98154.69;5212781;28;20028;-75
2024/01/04 01:37:56;;;;;;;6.70;2.20;;;;;;;8.99;100.00;98158.34;5210117;28;20040;-75
2024/01/04 01:40:26;;;;;;;3.90;1.80;;;;;;;8.95;100.00;98165.53;5206572;28;20062;-75
2024/01/04 01:42:59;;;;;;;5.07;1.40;;;;;;;8.98;100.00;98170.53;5210657;28;20483;-76
2024/01/04 01:45:29;;;;;;;2.05;1.10;;;;;;;9.00;100.00;98165.22;5214524;28;20032;-75
2024/01/04 01:47:59;;;;;;;2.33;0.88;;;;;;;9.02;100.00;98173.75;5209238;28;20025;-75
2024/01/04 01:50:31;;;;;;;2.83;1.00;;;;;;;9.06;100.00;98170.84;5209123;28;20492;-75
2024/01/04 01:53:01;;;;;;;3.95;1.05;;;;;;;9.00;100.00;98175.63;5208385;28;20037;-75
2024/01/04 01:55:32;;;;;;;2.38;0.70;;;;;;;8.96;100.00;98174.16;5200678;28;20032;-74
2024/01/04 01:58:03;;;;;;;3.75;1.13;;;;;;;8.97;100.00;98176.69;5206530;28;20029;-75
2024/01/04 02:00:36;;;;;;;2.40;1.00;;;;;;;9.03;100.00;98181.47;5214666;28;20406;-75
2024/01/04 02:03:08;;;;;;;6.25;1.27;;;;;;;8.94;100.00;98187.31;5205147;28;20026;-75
2024/01/04 02:05:38;;;;;;;3.75;1.00;;;;;;;9.11;100.00;98191.38;5205914;28;20037;-75
2024/01/04 02:08:09;;;;;;;4.43;1.30;;;;;;;8.96;100.00;98189.81;5210672;28;20522;-75
2024/01/04 02:10:39;;;;;;;6.38;1.10;;;;;;;8.96;100.00;98205.44;5210865;28;20127;-75
2024/01/04 02:13:10;;;;;;;4.85;1.55;;;;;;;9.05;100.00;98200.44;5208446;28;20384;-75
2024/01/04 02:15:40;;;;;;;3.65;1.05;;;;;;;9.00;100.00;98207.72;5223692;28;20182;-75
2024/01/04 02:18:10;;;;;;;4.13;1.10;;;;;;;9.05;100.00;98212.63;5210350;28;20025;-75
2024/01/04 02:20:41;;;;;;;2.28;1.00;;;;;;;8.98;100.00;98221.78;5210031;28;20044;-75
2024/01/04 02:23:18;;;;;;;2.55;1.20;;;;;;;8.98;100.00;98220.03;5206787;28;20030;-74
2024/01/04 02:25:48;;;;;;;2.67;1.23;;;;;;;9.03;100.00;98214.50;5210650;28;20036;-74
2024/01/04 02:28:19;;;;;;;1.77;1.00;;;;;;;8.98;100.00;98224.38;5210111;28;20026;-75
2024/01/04 02:30:49;;;;;;;3.75;1.60;;;;;;;8.98;100.00;98219.19;5210555;28;20116;-75
2024/01/04 02:33:19;;;;;;;3.60;1.38;;;;;;;8.96;100.00;98231.47;5209884;28;20029;-75
2024/01/04 02:35:50;;;;;;;4.25;1.08;;;;;;;8.86;100.00;98233.03;5209588;28;20028;-74
2024/01/04 02:38:20;;;;;;;3.22;1.10;;;;;;;8.82;100.00;98228.94;5207607;28;20056;-75
2024/01/04 02:40:50;;;;;;;4.28;0.63;;;;;;;8.76;100.00;98240.59;5210339;28;20048;-74
2024/01/04 02:43:22;;;;;;;1.48;0.70;;;;;;;8.85;100.00;98244.34;5212005;28;20501;-75
2024/01/04 02:45:52;;;;;;;1.50;0.50;;;;;;;8.81;100.00;98238.53;5210161;28;20127;-74
2024/01/04 02:48:22;;;;;;;1.90;0.55;;;;;;;8.83;100.00;98246.22;5212364;28;20120;-75
2024/01/04 02:50:53;;;;;;;1.65;0.43;;;;;;;8.70;100.00;98248.00;5209393;28;20034;-74
2024/01/04 02:53:23;;;;;;;2.15;0.57;;;;;;;8.77;100.00;98252.69;5215976;28;20017;-74
2024/01/04 02:55:55;;;;;;;1.38;0.70;;;;;;;8.78;100.00;98254.38;5214163;28;20057;-75
2024/01/04 02:58:26;;;;;;;1.40;0.50;;;;;;;8.74;100.00;98262.47;5214102;28;20112;-74
2024/01/04 03:00:57;;;;;;;1.85;0.40;;;;;;;8.75;100.00;98264.13;5211582;28;20044;-75
2024/01/04 03:03:27;;;;;;;2.97;0.82;;;;;;;8.78;100.00;98270.00;5214015;28;20401;-74
2024/01/04 03:05:57;;;;;;;2.78;0.45;;;;;;;8.81;100.00;98277.59;5212422;28;20414;-74
2024/01/04 03:08:28;;;;;;;3.03;0.70;;;;;;;8.80;100.00;98278.53;5214950;28;20017;-74
2024/01/04 03:10:58;;;;;;;2.38;0.80;;;;;;;8.88;100.00;98280.63;5213265;28;20025;-74
2024/01/04 03:13:28;;;;;;;3.15;0.80;;;;;;;8.87;100.00;98282.41;5213029;28;20562;-75
2024/01/04 03:15:58;;;;;;;4.97;1.17;;;;;;;8.76;100.00;98287.44;5210233;28;20036;-74
2024/01/04 03:18:29;;;;;;;5.75;1.40;;;;;;;8.75;100.00;98285.78;5208715;28;20059;-75
2024/01/04 03:20:59;;;;;;;4.00;1.20;;;;;;;8.77;100.00;98283.94;5212319;28;20049;-74
2024/01/04 03:23:29;;;;;;;4.72;1.50;;;;;;;8.84;100.00;98282.59;5212551;28;21036;-74
2024/01/04 03:26:00;;;;;;;5.03;1.60;;;;;;;8.75;100.00;98279.75;5207850;28;20044;-75
2024/01/04 03:28:30;;;;;;;5.18;1.30;;;;;;;8.73;100.00;98290.25;5213882;28;20069;-75
2024/01/04 03:31:01;;;;;;;2.63;1.23;;;;;;;8.81;100.00;98294.97;5214746;28;20392;-74
2024/01/04 03:33:32;;;;;;;3.28;1.10;;;;;;;8.71;100.00;98310.34;5213200;28;20035;-74
2024/01/04 03:36:02;;;;;;;3.05;1.05;;;;;;;8.77;100.00;98307.38;5209659;28;20028;-75
2024/01/04 03:38:33;;;;;;;2.67;0.88;;;;;;;8.72;100.00;98322.44;5212920;28;20055;-76
2024/01/04 03:41:03;;;;;;;3.38;0.90;;;;;;;8.79;100.00;98321.13;5209961;28;20030;-75
2024/01/04 03:43:34;;;;;;;3.15;1.02;;;;;;;8.73;100.00;98324.09;5212762;28;20029;-75
2024/01/04 03:46:05;;;;;;;3.17;1.10;;;;;;;8.81;100.00;98324.47;5211000;28;20499;-74
2024/01/04 03:48:36;;;;;;;3.70;0.80;;;;;;;8.74;100.00;98320.56;5211578;28;20251;-74
2024/01/04 03:51:06;;;;;;;2.47;0.95;;;;;;;8.72;100.00;98325.03;5211865;28;20113;-74
2024/01/04 03:53:36;;;;;;;5.88;1.15;;;;;;;8.73;100.00;98337.13;5212062;28;20021;-74
2024/01/04 03:56:07;;;;;;;3.65;0.90;;;;;;;8.77;100.00;98336.03;5212496;28;20437;-75
2024/01/04 03:58:38;;;;;;;2.10;0.80;;;;;;;8.70;100.00;98345.13;5214559;28;20116;-74
2024/01/04 04:01:08;;;;;;;2.22;0.80;;;;;;;8.58;100.00;98351.13;5210901;28;20418;-74
2024/01/04 04:03:38;;;;;;;4.50;0.90;;;;;;;8.56;100.00;98355.59;5211015;28;20035;-75
2024/01/04 04:06:09;;;;;;;2.85;0.93;;;;;;;8.55;100.00;98361.72;5209359;28;20036;-74
2024/01/04 04:08:39;;;;;;;3.75;1.00;;;;;;;8.59;100.00;98355.38;5213037;28;20033;-75
2024/01/04 04:11:17;;;;;;;4.18;1.20;;;;;;;8.52;100.00;98367.13;5210113;28;20168;-74
2024/01/04 04:13:47;;;;;;;4.18;1.50;;;;;;;8.59;100.00;98363.19;5209930;28;20100;-75
2024/01/04 04:16:17;;;;;;;2.92;1.15;;;;;;;8.50;100.00;98362.94;5211243;28;20383;-75
2024/01/04 04:18:47;;;;;;;3.95;1.40;;;;;;;8.47;100.00;98366.59;5210075;28;20064;-75
2024/01/04 04:21:21;;;;;;;4.20;1.42;;;;;;;8.54;100.00;98369.66;5211023;28;20567;-74
2024/01/04 04:23:52;;;;;;;5.20;1.55;;;;;;;8.45;100.00;98376.25;5210242;28;20036;-74
2024/01/04 04:26:22;;;;;;;6.05;1.40;;;;;;;8.48;100.00;98378.66;5212468;28;20032;-75
2024/01/04 04:28:52;;;;;;;2.63;1.40;;;;;;;8.49;100.00;98385.53;5213885;28;20024;-75
2024/01/04 04:31:23;;;;;;;2.53;0.98;;;;;;;8.35;100.00;98389.94;5214088;28;20039;-75
2024/01/04 04:33:54;;;;;;;3.55;0.93;;;;;;;8.42;100.00;98392.03;5210689;28;20120;-75
2024/01/04 04:36:24;;;;;;;2.75;1.10;;;;;;;8.34;100.00;98386.47;5209895;28;20021;-75
2024/01/04 04:38:54;;;;;;;2.00;0.70;;;;;;;8.46;100.00;98397.91;5211741;28;20052;-75
2024/01/04 04:41:25;;;;;;;3.67;0.85;;;;;;;8.45;100.00;98404.88;5213033;28;20029;-75
2024/01/04 04:43:55;;;;;;;1.92;0.90;;;;;;;8.40;100.00;98404.31;5209923;28;20034;-74
2024/01/04 04:46:25;;;;;;;3.25;1.40;;;;;;;8.46;100.00;98411.75;5210498;28;20025;-75
2024/01/04 04:48:57;;;;;;;2.25;1.20;;;;;;;8.43;100.00;98422.38;5209747;28;20029;-72
2024/01/04 04:51:27;;;;;;;1.73;0.70;;;;;;;8.48;100.00;98424.66;5211489;28;20505;-75
2024/01/04 04:53:58;;;;;;;2.90;0.77;;;;;;;8.40;100.00;98417.31;5209771;28;20215;-74
2024/01/04 04:56:29;;;;;;;1.83;0.52;;;;;;;8.39;100.00;98439.06;5211132;28;20582;-75
2024/01/04 04:58:59;;;;;;;1.55;0.45;;;;;;;8.31;100.00;98436.13;5205821;28;20082;-74
2024/01/04 05:01:29;;;;;;;1.98;0.63;;;;;;;8.29;100.00;98439.72;5210464;28;20032;-75
2024/01/04 05:03:59;;;;;;;1.73;0.60;;;;;;;8.37;100.00;98446.13;5206478;28;20026;-75
2024/01/04 05:06:30;;;;;;;4.00;0.75;;;;;;;8.35;100.00;98445.41;5208062;28;20545;-75
2024/01/04 05:09:00;;;;;;;3.00;0.88;;;;;;;8.29;100.00;98453.59;5205937;28;20040;-74
2024/01/04 05:11:30;;;;;;;1.27;0.80;;;;;;;8.09;100.00;98463.47;5210620;28;20068;-75
2024/01/04 05:14:02;;;;;;;5.50;1.20;;;;;;;8.05;100.00;98469.78;5206935;28;20025;-75
2024/01/04 05:16:32;;;;;;;2.85;0.82;;;;;;;7.98;100.00;98482.31;5210209;28;20029;-75
2024/01/04 05:19:02;;;;;;;1.35;0.50;;;;;;;7.85;100.00;98476.13;5205882;28;20039;-75
2024/01/04 05:21:33;;;;;;;1.77;0.50;;;;;;;7.63;100.00;98493.06;5210472;28;20347;-75
2024/01/04 05:24:04;;;;;;;1.20;0.50;;;;;;;7.56;100.00;98504.72;5208284;28;20104;-75
2024/01/04 05:26:35;;;;;;;2.10;0.60;;;;;;;7.27;100.00;98495.13;5212719;28;20116;-74
2024/01/04 05:29:05;;;;;;;1.77;0.40;;;;;;;7.19;100.00;98502.50;5207565;28;20087;-74
2024/01/04 05:31:35;;;;;;;0.88;0.50;;;;;;;6.99;100.00;98509.72;5213517;28;20387;-74
2024/01/04 05:34:06;;;;;;;0.57;0.43;;;;;;;7.03;100.00;98511.22;5207457;28;20559;-74
2024/01/04 05:36:36;;;;;;;2.10;0.43;;;;;;;6.99;100.00;98515.75;5209950;28;20025;-74
2024/01/04 05:39:06;;;;;;;0.60;0.40;;;;;;;6.95;100.00;98518.59;5208260;28;20025;-75
2024/01/04 05:41:36;;;;;;;0.80;0.30;;;;;;;6.86;100.00;98519.94;5210565;28;20032;-74
2024/01/04 05:44:07;;;;;;;0.73;0.30;;;;;;;6.79;100.00;98528.94;5208749;28;20112;-75
2024/01/04 05:46:37;;;;;;;1.23;0.30;;;;;;;6.79;100.00;98534.13;5210194;28;20036;-74
2024/01/04 05:49:07;;;;;;;2.13;0.50;;;;;;;6.78;100.00;98529.84;5207726;28;20032;-75
2024/01/04 05:51:38;;;;;;;3.65;0.50;;;;;;;6.74;100.00;98543.09;5209449;28;20474;-74
2024/01/04 05:54:08;;;;;;;0.50;0.20;;;;;;;6.74;100.00;98562.09;5205972;28;20109;-75
2024/01/04 05:56:38;;;;;;;1.35;0.55;;;;;;;6.67;100.00;98552.97;5211126;28;20037;-75
2024/01/04 05:59:09;;;;;;;1.52;0.35;;;;;;;6.66;100.00;98561.66;5207494;28;20033;-74
2024/01/04 06:01:39;;;;;;;1.55;0.45;;;;;;;6.77;100.00;98561.09;5210363;28;20037;-75
2024/01/04 06:04:09;;;;;;;0.60;0.30;;;;;;;6.82;100.00;98569.47;5206864;28;20029;-74
2024/01/04 06:06:40;;;;;;;2.60;0.50;;;;;;;6.78;100.00;98583.53;5209530;28;20029;-74
2024/01/04 06:09:10;;;;;;;1.98;0.60;;;;;;;6.93;100.00;98587.94;5206097;28;20029;-73
2024/01/04 06:11:40;;;;;;;0.95;0.50;;;;;;;6.85;100.00;98590.09;5209370;28;20075;-74
2024/01/04 06:14:10;;;;;;;4.25;0.73;;;;;;;6.90;100.00;98601.91;5202442;28;20072;-74
2024/01/04 06:16:41;;;;;;;1.55;0.80;;;;;;;6.84;100.00;98597.03;5208874;28;20048;-74
2024/01/04 06:19:11;;;;;;;2.83;0.70;;;;;;;6.96;100.00;98613.72;5203747;28;20035;-74
2024/01/04 06:21:41;;;;;;;1.35;0.50;;;;;;;6.95;100.00;98617.25;5208859;28;20029;-75
2024/01/04 06:24:12;;;;;;;3.85;1.00;;;;;;;6.93;100.00;98619.09;5209873;28;20078;-74
2024/01/04 06:26:42;;;;;;;1.70;0.80;;;;;;;6.79;100.00;98637.94;5210131;28;20021;-75
2024/01/04 06:29:12;;;;;;;2.38;0.70;;;;;;;6.77;100.00;98650.19;5210569;28;20482;-74
2024/01/04 06:31:43;;;;;;;4.47;1.08;;;;;;;6.73;100.00;98643.47;5217298;28;20106;-74
2024/01/04 06:34:13;;;;;;;2.05;0.60;;;;;;;6.68;100.00;98655.84;5208492;28;20411;-75
2024/01/04 06:36:43;;;;;;;3.05;0.70;;;;;;;6.81;100.00;98659.50;5211718;28;20024;-74
2024/01/04 06:39:14;;;;;;;4.15;0.70;;;;;;;6.65;100.00;98665.53;5212500;28;20078;-74
2024/01/04 06:41:44;;;;;;;2.75;0.60;;;;;;;6.61;100.00;98667.44;5211297;28;20040;-72
2024/01/04 06:44:15;;;;;;;1.02;0.40;;;;;;;6.49;100.00;98673.25;5210479;28;20036;-74
2024/01/04 06:46:45;;;;;;;1.50;0.50;;;;;;;6.57;100.00;98676.28;5206094;28;20029;-74
2024/01/04 06:49:15;;;;;;;2.10;0.50;;;;;;;6.48;100.00;98691.47;5208344;28;20111;-74
2024/01/04 06:51:46;;;;;;;2.58;0.60;;;;;;;6.50;100.00;98694.84;5213161;28;20036;-74
2024/01/04 06:54:16;;;;;;;1.00;0.60;;;;;;;6.54;100.00;98705.00;5213377;28;20036;-74
2024/01/04 06:56:47;;;;;;;1.65;0.73;;;;;;;6.52;100.00;98705.97;5212262;28;20524;-74
2024/01/04 06:59:17;;;;;;;1.02;0.57;;;;;;;6.53;100.00;98703.31;5211117;28;20398;-74
2024/01/04 07:01:47;;;;;;;2.35;0.77;;;;;;;6.54;100.00;98709.31;5224917;28;20033;-74
2024/01/04 07:04:17;;;;;;;0.90;0.50;;;;;;;6.54;100.00;98714.53;5210101;28;20028;-74
2024/01/04 07:06:48;;;;;;;0.73;0.40;;;;;;;6.58;100.00;98713.47;5213887;28;20036;-74
2024/01/04 07:09:18;;;;;;;2.85;0.70;;;;;;;6.59;100.00;98723.75;5208816;28;20021;-74
2024/01/04 07:11:48;;;;;;;2.45;0.60;;;;;;;6.58;100.00;98716.06;5210657;28;20490;-74
2024/01/04 07:14:18;;;;;;;3.00;0.80;;;;;;;6.54;99.09;98722.31;5210774;28;20040;-74
2024/01/04 07:16:50;;;;;;;2.03;0.52;;;;;;;6.46;98.00;98721.84;5208356;28;20057;-74
2024/01/04 07:19:22;;;;;;;1.48;1.02;;;;;;;6.42;97.64;98733.31;5209344;28;20444;-74
2024/01/04 07:21:52;;;;;;;1.85;0.70;;;;;;;6.47;98.38;98728.72;5209230;28;20060;-74
2024/01/04 07:24:22;;;;;;;1.48;0.50;;;;;;;6.43;97.29;98740.16;5211003;28;20033;-74
2024/01/04 07:26:53;;;;;;;2.42;1.23;;;;;;;6.52;96.49;98747.50;5211516;28;20452;-74
2024/01/04 07:29:23;;;;;;;5.45;2.20;;;;;;;6.44;96.27;98749.63;5208457;28;20030;-74
2024/01/04 07:31:54;;;;;;;8.75;3.35;;;;;;;6.47;96.33;98760.72;5213533;28;20037;-74
2024/01/04 07:34:25;;;;;;;2.72;0.85;;;;;;;6.51;96.12;98761.38;5210159;28;20429;-74
2024/01/04 07:36:55;;;;;;;3.35;0.80;;;;;;;6.49;96.11;98773.59;5209404;28;20033;-74
2024/01/04 07:39:26;;;;;;;2.88;0.68;;;;;;;6.42;95.59;98790.38;5208840;28;20466;-75
2024/01/04 07:41:56;;;;;;;2.40;0.65;;;;;;;6.47;95.56;98788.38;5209294;28;20108;-74
2024/01/04 07:44:26;;;;;;;2.97;0.88;;;;;;;6.48;95.11;98783.13;5211115;28;20599;-75
2024/01/04 07:46:57;;;;;;;3.67;0.57;;;;;;;6.41;94.62;98780.91;5222730;28;20031;-74
2024/01/04 07:49:27;;;;;;;2.33;1.10;;;;;;;6.44;94.41;98796.31;5211326;28;20079;-74
2024/01/04 07:51:57;;;;;;;3.83;1.08;;;;;;;6.41;94.13;98791.28;5209734;28;20036;-74
2024/01/04 07:54:28;;;;;;;2.30;0.65;;;;;;;6.47;93.29;98801.34;5210881;28;20086;-74
2024/01/04 07:56:59;;;;;;;2.25;0.70;;;;;;;6.42;92.65;98808.53;5210774;28;20248;-74
2024/01/04 07:59:30;;;;;;;2.55;1.30;;;;;;;6.37;92.08;98811.34;5210588;28;20106;-74
2024/01/04 08:02:00;;;;;;;5.38;1.00;;;;;;;6.40;92.46;98820.72;5209507;28;20035;-74
2024/01/04 08:04:32;;;;;;;3.25;1.33;;;;;;;6.51;92.62;98834.03;5211948;28;20044;-74
2024/01/04 08:07:02;;;;;;;2.13;0.70;;;;;;;6.46;91.76;98836.00;5207475;28;20031;-74
2024/01/04 08:09:33;;;;;;;2.00;0.70;;;;;;;6.47;91.89;98828.16;5210313;28;20017;-74
2024/01/04 08:12:03;;;;;;;1.00;0.52;;;;;;;6.42;91.67;98831.88;5208756;28;20036;-74
2024/01/04 08:14:34;;;;;;;27.92;9.73;;;;;;;6.48;91.94;98823.78;5210556;28;20028;-74
2024/01/04 08:17:04;;;;;;;7.47;2.78;;;;;;;6.48;90.36;98834.16;5207440;28;20112;-74
2024/01/04 08:19:35;;;;;;;4.15;2.53;;;;;;;6.45;89.90;98834.31;5209834;28;21036;-74
2024/01/04 08:22:05;;;;;;;2.88;1.10;;;;;;;6.43;90.41;98841.34;5208691;28;20101;-73
2024/01/04 08:24:36;;;;;;;2.17;0.70;;;;;;;6.58;90.46;98838.84;5216521;28;20063;-74
2024/01/04 08:27:06;;;;;;;2.13;0.82;;;;;;;6.60;90.23;98838.78;5214426;28;20037;-71
2024/01/04 08:29:36;;;;;;;1.30;0.50;;;;;;;6.51;91.28;98858.22;5216144;28;20069;-74
2024/01/04 08:32:07;;;;;;;1.33;0.52;;;;;;;6.37;90.75;98857.16;5209237;28;20117;-72
2024/01/04 08:34:37;;;;;;;1.77;0.50;;;;;;;6.34;91.80;98863.34;5209929;28;20025;-74
2024/01/04 08:37:07;;;;;;;1.83;0.70;;;;;;;6.47;90.74;98874.88;5208310;28;20494;-72
2024/01/04 08:39:38;;;;;;;0.57;0.30;;;;;;;6.43;91.06;98885.44;5212413;28;20028;-73
2024/01/04 08:42:08;;;;;;;1.30;0.40;;;;;;;6.34;91.92;98889.28;5209121;28;20467;-72
2024/01/04 08:44:38;;;;;;;3.17;1.02;;;;;;;6.36;91.66;98892.66;5215221;28;20029;-73
2024/01/04 08:47:08;;;;;;;1.38;0.70;;;;;;;6.46;92.49;98908.66;5208113;28;20317;-72
2024/01/04 08:49:39;;;;;;;1.65;0.90;;;;;;;6.35;91.51;98914.31;5209499;28;20090;-73
2024/01/04 08:52:09;;;;;;;0.90;0.60;;;;;;;6.34;92.36;98919.56;5209114;28;20029;-74
2024/01/04 08:54:42;;;;;;;2.58;1.08;;;;;;;6.26;92.95;98921.69;5210343;28;20035;-73
2024/01/04 08:57:12;;;;;;;7.68;3.13;;;;;;;6.14;93.55;98925.66;5209060;28;20028;-73
2024/01/04 08:59:43;;;;;;;11.98;5.00;;;;;;;6.22;94.22;98935.69;5209838;28;20037;-74
2024/01/04 09:02:13;;;;;;;2.63;1.27;;;;;;;6.18;94.81;98944.50;5208110;28;20079;-74
2024/01/04 09:04:43;;;;;;;10.38;4.57;;;;;;;6.20;95.44;98947.88;5209898;28;20478;-74
2024/01/04 09:07:14;;;;;;;4.55;2.00;;;;;;;6.21;94.46;98954.72;5208162;28;20040;-74
2024/01/04 09:09:45;;;;;;;4.28;1.35;;;;;;;6.12;95.86;98960.34;5211712;28;20056;-74
2024/01/04 09:12:15;;;;;;;2.85;1.15;;;;;;;6.08;94.72;98964.81;5207715;28;20079;-74
2024/01/04 09:14:46;;;;;;;3.15;0.93;;;;;;;6.03;95.01;98966.75;5209243;28;20394;-74
2024/01/04 09:17:17;;;;;;;2.50;1.40;;;;;;;6.10;96.01;98962.16;5210550;28;20185;-74
2024/01/04 09:19:49;;;;;;;2.42;0.82;;;;;;;6.01;94.95;98983.28;5210252;28;20150;-74
2024/01/04 09:22:19;;;;;;;1.10;0.60;;;;;;;6.08;95.68;98992.50;5207736;28;20029;-74
2024/01/04 09:24:50;;;;;;;4.05;1.20;;;;;;;6.01;96.01;98989.31;5208354;28;20035;-74
2024/01/04 09:27:22;;;;;;;2.17;1.23;;;;;;;6.19;96.17;98998.03;5210577;28;20028;-73
2024/01/04 09:29:52;;;;;;;4.20;1.17;;;;;;;6.23;95.74;98997.84;5209617;28;20037;-74
2024/01/04 09:32:22;;;;;;;2.35;1.10;;;;;;;6.23;95.61;99004.81;5209957;28;20028;-74
2024/01/04 09:34:53;;;;;;;3.95;1.55;;;;;;;6.13;96.47;99006.97;5206709;28;20036;-74
2024/01/04 09:37:23;;;;;;;5.50;2.80;;;;;;;6.18;97.10;99022.31;5209026;28;20039;-74
2024/01/04 09:39:53;;;;;;;5.07;2.20;;;;;;;6.09;96.96;99020.94;5208289;28;20120;-74
2024/01/04 09:42:25;;;;;;;4.53;2.50;;;;;;;6.09;96.81;99023.53;5209404;28;20482;-73
2024/01/04 09:45:01;;;;;;;6.82;2.22;;;;;;;6.01;96.70;99040.31;5207550;28;20082;-73
2024/01/04 09:47:32;;;;;;;;;;;;;;;6.02;97.19;99044.59;5210697;28;21328;-73
2024/01/04 09:50:03;;;;;;;7.32;3.33;;;;;;;5.94;98.20;99059.63;5206594;28;20373;-73
2024/01/04 09:52:34;;;;;;;6.13;3.20;;;;;;;6.02;98.59;99065.34;5210630;28;20024;-73
2024/01/04 09:55:07;;;;;;;4.97;2.72;;;;;;;5.87;98.85;99073.75;5208428;28;20483;-73
2024/01/04 09:57:38;;;;;;;3.50;1.50;;;;;;;5.94;98.71;99065.66;5209937;28;20044;-74
2024/01/04 10:00:09;;;;;;;4.38;1.92;;;;;;;6.01;99.37;99081.81;5208996;28;20029;-74
2024/01/04 10:02:42;;;;;;;4.53;2.53;;;;;;;5.89;100.00;99077.97;5210479;28;20220;-74
2024/01/04 10:05:18;;;;;;;1.33;0.90;;;;;;;5.68;100.00;99084.00;5205708;28;20124;-72
2024/01/04 10:08:13;;;;;;;2.28;1.23;;;;;;;5.63;100.00;99096.28;5209050;28;20086;-73
2024/01/04 10:10:44;;;;;;;2.60;1.23;;;;;;;5.57;100.00;99101.69;5207160;28;20037;-74
2024/01/04 10:13:15;;;;;;;2.88;2.05;;;;;;;5.65;100.00;99109.16;5210497;28;20060;-73
2024/01/04 10:15:48;;;;;;;3.55;2.10;;;;;;;5.58;100.00;99118.94;5209338;28;20482;-73
2024/01/04 10:18:18;;;;;;;11.75;3.80;;;;;;;5.64;100.00;99123.03;5206500;28;20108;-73
2024/01/04 10:21:03;;;;;;;3.50;2.25;;;;;;;5.65;100.00;99119.53;5205097;28;20116;-73
2024/01/04 10:23:33;;;;;;;4.93;1.80;;;;;;;5.45;100.00;99127.25;5214330;28;20508;-73
2024/01/04 10:26:17;;;;;;;5.10;2.60;;;;;;;5.38;100.00;99130.97;5207769;28;20033;-73
2024/01/04 10:28:59;;;;;;;2.75;1.35;;;;;;;5.22;100.00;99137.63;5207212;28;20025;-73
2024/01/04 10:31:29;;;;;;;5.55;2.75;;;;;;;5.31;100.00;99141.63;5211789;28;20537;-74
2024/01/04 10:34:00;;;;;;;3.75;1.88;;;;;;;5.17;100.00;99144.69;5201894;28;20119;-73
2024/01/04 10:36:32;;;;;;;9.15;5.05;;;;;;;5.16;100.00;99148.19;5210014;28;20052;-73
2024/01/04 10:39:09;;;;;;;9.70;3.95;;;;;;;5.11;100.00;99147.53;5205644;28;20029;-73
2024/01/04 10:41:40;;;;;;;4.80;2.55;;;;;;;5.03;100.00;99154.75;5208707;28;20035;-73
2024/01/04 10:44:11;;;;;;;4.55;2.10;;;;;;;5.06;100.00;99159.81;5205734;28;20067;-74
2024/01/04 10:46:42;;;;;;;4.43;1.30;;;;;;;5.15;100.00;99154.28;5207729;28;20028;-73
2024/01/04 10:49:16;;;;;;;2.70;0.85;;;;;;;5.10;100.00;99160.50;5207340;28;20112;-73
2024/01/04 10:51:51;;;;;;;2.72;0.90;;;;;;;5.17;100.00;99168.00;5207424;28;20033;-74
2024/01/04 10:54:33;;;;;;;2.50;0.93;;;;;;;5.16;100.00;99179.25;5208036;28;20029;-74
2024/01/04 10:57:03;;;;;;;1.40;0.63;;;;;;;5.13;100.00;99173.38;5209133;28;20075;-73
2024/01/04 10:59:34;;;;;;;4.28;0.98;;;;;;;5.21;100.00;99184.28;5209791;28;20037;-73
2024/01/04 11:02:05;;;;;;;5.18;1.15;;;;;;;5.21;100.00;99185.13;5206196;28;20051;-73
2024/01/04 11:04:36;;;;;;;1.85;0.80;;;;;;;5.16;100.00;99196.56;5208172;28;20103;-73
2024/01/04 11:07:07;;;;;;;2.35;0.80;;;;;;;5.35;100.00;99195.81;5202545;28;20125;-73
2024/01/04 11:09:38;;;;;;;3.33;0.90;;;;;;;5.26;100.00;99197.91;5206845;28;20103;-73
2024/01/04 11:12:09;;;;;;;4.03;1.05;;;;;;;5.39;100.00;99194.81;5208079;28;20108;-74
2024/01/04 11:14:39;;;;;;;1.65;0.82;;;;;;;5.31;100.00;99207.19;5210874;28;20032;-73
2024/01/04 11:17:28;;;;;;;4.57;0.98;;;;;;;5.40;100.00;99217.22;5209731;28;20030;-73
2024/01/04 11:20:17;;;;;;;2.42;0.73;;;;;;;5.39;100.00;99206.00;5208549;28;20104;-73
2024/01/04 11:23:28;;;;;;;1.80;0.65;;;;;;;5.53;99.44;99208.94;5212214;28;20025;-73
2024/01/04 11:26:15;;;;;;;2.75;0.88;;;;;;;5.70;98.78;99216.06;5213494;28;20072;-73
2024/01/04 11:28:47;;;;;;;2.60;0.90;;;;;;;5.89;97.17;99217.13;5210146;28;20029;-73
2024/01/04 11:31:18;;;;;;;4.38;0.95;;;;;;;5.81;95.81;99217.41;5210681;28;20025;-74
2024/01/04 11:33:49;;;;;;;2.50;1.08;;;;;;;5.83;95.76;99219.94;5211447;28;20037;-74
2024/01/04 11:36:19;;;;;;;1.90;0.88;;;;;;;5.70;95.21;99229.03;5209775;28;20022;-73
2024/01/04 11:38:50;;;;;;;2.63;1.05;;;;;;;5.62;95.21;99249.22;5210282;28;20025;-74
2024/01/04 11:41:30;;;;;;;1.73;1.00;;;;;;;5.40;94.44;99243.13;5210550;28;20040;-73
2024/01/04 11:44:02;;;;;;;2.42;0.90;;;;;;;5.43;94.84;99243.00;5208114;28;20025;-74
2024/01/04 11:46:32;;;;;;;3.22;0.80;;;;;;;5.37;94.98;99248.44;5213473;28;20263;-73
2024/01/04 11:49:05;;;;;;;2.05;0.63;;;;;;;5.45;94.47;99251.56;5210127;28;20025;-73
2024/01/04 11:51:38;;;;;;;3.70;1.00;;;;;;;5.32;93.09;99255.50;5210188;28;20060;-73
2024/01/04 11:54:10;;;;;;;1.88;0.77;;;;;;;5.35;93.68;99255.38;5211144;28;20052;-73